sensor_id;sensor_type;location;lat;lon;timestamp;P1;durP1;ratioP1;P2;durP2;ratioP2
14306;SDS011;7237;49.500;11.400;2023-04-19T00:01:20;7.00;;;6.20;;
14306;SDS011;7237;49.500;11.400;2023-04-19T00:03:48;5.87;;;5.37;;
14306;SDS011;7237;49.500;11.400;2023-04-19T00:06:15;6.20;;;5.60;;
14306;SDS011;7237;49.500;11.400;2023-04-19T00:08:43;5.90;;;5.40;;
14306;SDS011;7237;49.500;11.400;2023-04-19T00:11:11;5.83;;;5.33;;
14306;SDS011;7237;49.500;11.400;2023-04-19T00:13:38;6.10;;;5.57;;
14306;SDS011;7237;49.500;11.400;2023-04-19T00:16:06;6.47;;;5.77;;
14306;SDS011;7237;49.500;11.400;2023-04-19T00:18:33;6.70;;;5.73;;
14306;SDS011;7237;49.500;11.400;2023-04-19T00:21:00;7.10;;;6.40;;
14306;SDS011;7237;49.500;11.400;2023-04-19T00:23:27;9.40;;;6.20;;
14306;SDS011;7237;49.500;11.400;2023-04-19T00:25:54;6.53;;;5.60;;
14306;SDS011;7237;49.500;11.400;2023-04-19T00:28:23;6.20;;;5.60;;
14306;SDS011;7237;49.500;11.400;2023-04-19T00:30:51;6.57;;;5.63;;
14306;SDS011;7237;49.500;11.400;2023-04-19T00:33:18;7.30;;;6.60;;
14306;SDS011;7237;49.500;11.400;2023-04-19T00:35:45;6.83;;;5.83;;
14306;SDS011;7237;49.500;11.400;2023-04-19T00:38:12;7.10;;;5.70;;
14306;SDS011;7237;49.500;11.400;2023-04-19T00:40:39;6.57;;;5.67;;
14306;SDS011;7237;49.500;11.400;2023-04-19T00:43:06;6.50;;;5.90;;
14306;SDS011;7237;49.500;11.400;2023-04-19T00:45:34;6.10;;;5.33;;
14306;SDS011;7237;49.500;11.400;2023-04-19T00:48:02;6.57;;;5.90;;
14306;SDS011;7237;49.500;11.400;2023-04-19T00:50:29;6.70;;;6.10;;
14306;SDS011;7237;49.500;11.400;2023-04-19T00:52:56;6.37;;;5.83;;
14306;SDS011;7237;49.500;11.400;2023-04-19T00:55:23;6.23;;;5.73;;
14306;SDS011;7237;49.500;11.400;2023-04-19T00:57:50;6.30;;;5.70;;
14306;SDS011;7237;49.500;11.400;2023-04-19T01:00:18;6.87;;;6.17;;
14306;SDS011;7237;49.500;11.400;2023-04-19T01:02:46;6.50;;;5.90;;
14306;SDS011;7237;49.500;11.400;2023-04-19T01:05:13;6.80;;;5.93;;
14306;SDS011;7237;49.500;11.400;2023-04-19T01:07:40;6.77;;;6.07;;
14306;SDS011;7237;49.500;11.400;2023-04-19T01:10:08;6.50;;;5.40;;
14306;SDS011;7237;49.500;11.400;2023-04-19T01:12:35;8.20;;;5.87;;
14306;SDS011;7237;49.500;11.400;2023-04-19T01:15:02;5.93;;;5.33;;
14306;SDS011;7237;49.500;11.400;2023-04-19T01:19:59;7.47;;;6.33;;
14306;SDS011;7237;49.500;11.400;2023-04-19T01:22:28;5.90;;;5.40;;
14306;SDS011;7237;49.500;11.400;2023-04-19T01:24:56;6.87;;;5.50;;
14306;SDS011;7237;49.500;11.400;2023-04-19T01:27:23;6.00;;;5.50;;
14306;SDS011;7237;49.500;11.400;2023-04-19T01:29:50;7.27;;;5.43;;
14306;SDS011;7237;49.500;11.400;2023-04-19T01:32:17;7.10;;;5.90;;
14306;SDS011;7237;49.500;11.400;2023-04-19T01:34:45;6.70;;;6.00;;
14306;SDS011;7237;49.500;11.400;2023-04-19T01:37:12;6.10;;;5.50;;
14306;SDS011;7237;49.500;11.400;2023-04-19T01:39:41;7.07;;;6.20;;
14306;SDS011;7237;49.500;11.400;2023-04-19T01:42:08;6.87;;;6.27;;
14306;SDS011;7237;49.500;11.400;2023-04-19T01:44:35;6.47;;;5.87;;
14306;SDS011;7237;49.500;11.400;2023-04-19T01:47:02;6.33;;;5.73;;
14306;SDS011;7237;49.500;11.400;2023-04-19T01:49:30;6.50;;;5.90;;
14306;SDS011;7237;49.500;11.400;2023-04-19T01:51:57;7.30;;;6.60;;
14306;SDS011;7237;49.500;11.400;2023-04-19T01:54:24;7.73;;;6.60;;
14306;SDS011;7237;49.500;11.400;2023-04-19T01:56:53;7.10;;;6.40;;
14306;SDS011;7237;49.500;11.400;2023-04-19T01:59:21;6.60;;;5.93;;
14306;SDS011;7237;49.500;11.400;2023-04-19T02:01:48;8.27;;;6.67;;
14306;SDS011;7237;49.500;11.400;2023-04-19T02:04:15;7.37;;;6.67;;
14306;SDS011;7237;49.500;11.400;2023-04-19T02:06:44;7.30;;;6.60;;
14306;SDS011;7237;49.500;11.400;2023-04-19T02:09:11;8.03;;;6.87;;
14306;SDS011;7237;49.500;11.400;2023-04-19T02:11:38;6.57;;;5.97;;
14306;SDS011;7237;49.500;11.400;2023-04-19T02:14:06;7.90;;;7.17;;
14306;SDS011;7237;49.500;11.400;2023-04-19T02:16:33;7.60;;;6.83;;
14306;SDS011;7237;49.500;11.400;2023-04-19T02:19:00;7.77;;;6.97;;
14306;SDS011;7237;49.500;11.400;2023-04-19T02:21:28;7.83;;;7.03;;
14306;SDS011;7237;49.500;11.400;2023-04-19T02:23:55;6.80;;;6.10;;
14306;SDS011;7237;49.500;11.400;2023-04-19T02:26:23;8.23;;;7.10;;
14306;SDS011;7237;49.500;11.400;2023-04-19T02:28:50;8.47;;;7.50;;
14306;SDS011;7237;49.500;11.400;2023-04-19T02:31:18;7.50;;;6.80;;
14306;SDS011;7237;49.500;11.400;2023-04-19T02:33:45;10.60;;;7.47;;
14306;SDS011;7237;49.500;11.400;2023-04-19T02:36:12;8.00;;;7.20;;
14306;SDS011;7237;49.500;11.400;2023-04-19T02:38:39;7.63;;;6.93;;
14306;SDS011;7237;49.500;11.400;2023-04-19T02:41:06;7.30;;;6.60;;
14306;SDS011;7237;49.500;11.400;2023-04-19T02:43:33;8.10;;;7.17;;
14306;SDS011;7237;49.500;11.400;2023-04-19T02:46:00;8.77;;;6.40;;
14306;SDS011;7237;49.500;11.400;2023-04-19T02:48:29;8.20;;;7.33;;
14306;SDS011;7237;49.500;11.400;2023-04-19T02:50:56;7.90;;;7.20;;
14306;SDS011;7237;49.500;11.400;2023-04-19T02:53:23;7.73;;;6.53;;
14306;SDS011;7237;49.500;11.400;2023-04-19T02:55:50;7.57;;;6.83;;
14306;SDS011;7237;49.500;11.400;2023-04-19T02:58:17;8.77;;;6.57;;
14306;SDS011;7237;49.500;11.400;2023-04-19T03:00:44;7.20;;;6.50;;
14306;SDS011;7237;49.500;11.400;2023-04-19T03:03:11;7.27;;;6.13;;
14306;SDS011;7237;49.500;11.400;2023-04-19T03:05:40;7.77;;;6.83;;
14306;SDS011;7237;49.500;11.400;2023-04-19T03:08:07;7.43;;;6.73;;
14306;SDS011;7237;49.500;11.400;2023-04-19T03:10:35;6.97;;;6.23;;
14306;SDS011;7237;49.500;11.400;2023-04-19T03:13:02;7.00;;;6.30;;
14306;SDS011;7237;49.500;11.400;2023-04-19T03:15:29;6.70;;;6.10;;
14306;SDS011;7237;49.500;11.400;2023-04-19T03:17:56;8.13;;;6.30;;
14306;SDS011;7237;49.500;11.400;2023-04-19T03:20:23;8.90;;;6.80;;
14306;SDS011;7237;49.500;11.400;2023-04-19T03:22:52;8.07;;;6.93;;
14306;SDS011;7237;49.500;11.400;2023-04-19T03:25:19;6.60;;;5.90;;
14306;SDS011;7237;49.500;11.400;2023-04-19T03:27:46;7.40;;;6.70;;
14306;SDS011;7237;49.500;11.400;2023-04-19T03:30:15;9.53;;;6.73;;
14306;SDS011;7237;49.500;11.400;2023-04-19T03:32:42;6.67;;;5.80;;
14306;SDS011;7237;49.500;11.400;2023-04-19T03:35:09;7.30;;;6.60;;
14306;SDS011;7237;49.500;11.400;2023-04-19T03:37:36;6.73;;;6.13;;
14306;SDS011;7237;49.500;11.400;2023-04-19T03:40:05;6.67;;;6.07;;
14306;SDS011;7237;49.500;11.400;2023-04-19T03:42:33;7.07;;;6.37;;
14306;SDS011;7237;49.500;11.400;2023-04-19T03:45:00;6.60;;;6.00;;
14306;SDS011;7237;49.500;11.400;2023-04-19T03:47:27;7.17;;;6.47;;
14306;SDS011;7237;49.500;11.400;2023-04-19T03:49:54;6.50;;;5.80;;
14306;SDS011;7237;49.500;11.400;2023-04-19T03:52:21;7.03;;;6.33;;
14306;SDS011;7237;49.500;11.400;2023-04-19T03:54:49;11.20;;;6.43;;
14306;SDS011;7237;49.500;11.400;2023-04-19T03:57:18;7.10;;;6.50;;
14306;SDS011;7237;49.500;11.400;2023-04-19T03:59:46;7.40;;;6.37;;
14306;SDS011;7237;49.500;11.400;2023-04-19T04:02:13;8.67;;;7.70;;
14306;SDS011;7237;49.500;11.400;2023-04-19T04:04:40;6.20;;;5.60;;
14306;SDS011;7237;49.500;11.400;2023-04-19T04:07:07;8.40;;;7.57;;
14306;SDS011;7237;49.500;11.400;2023-04-19T04:09:34;8.60;;;7.17;;
14306;SDS011;7237;49.500;11.400;2023-04-19T04:12:01;8.17;;;7.43;;
14306;SDS011;7237;49.500;11.400;2023-04-19T04:14:30;9.10;;;7.27;;
14306;SDS011;7237;49.500;11.400;2023-04-19T04:16:57;8.03;;;6.63;;
14306;SDS011;7237;49.500;11.400;2023-04-19T04:19:24;8.43;;;6.73;;
14306;SDS011;7237;49.500;11.400;2023-04-19T04:21:51;9.27;;;6.80;;
14306;SDS011;7237;49.500;11.400;2023-04-19T04:24:18;7.20;;;6.50;;
14306;SDS011;7237;49.500;11.400;2023-04-19T04:26:46;7.77;;;6.67;;
14306;SDS011;7237;49.500;11.400;2023-04-19T04:29:15;8.40;;;7.50;;
14306;SDS011;7237;49.500;11.400;2023-04-19T04:31:43;7.77;;;6.97;;
14306;SDS011;7237;49.500;11.400;2023-04-19T04:34:10;7.93;;;6.73;;
14306;SDS011;7237;49.500;11.400;2023-04-19T04:36:38;8.53;;;7.33;;
14306;SDS011;7237;49.500;11.400;2023-04-19T04:39:05;7.97;;;7.17;;
14306;SDS011;7237;49.500;11.400;2023-04-19T04:41:34;9.37;;;7.27;;
14306;SDS011;7237;49.500;11.400;2023-04-19T04:44:01;8.37;;;7.57;;
14306;SDS011;7237;49.500;11.400;2023-04-19T04:46:28;8.90;;;7.53;;
14306;SDS011;7237;49.500;11.400;2023-04-19T04:48:57;8.00;;;7.20;;
14306;SDS011;7237;49.500;11.400;2023-04-19T04:51:24;8.03;;;7.13;;
14306;SDS011;7237;49.500;11.400;2023-04-19T04:53:51;8.93;;;8.13;;
14306;SDS011;7237;49.500;11.400;2023-04-19T04:56:18;8.13;;;7.10;;
14306;SDS011;7237;49.500;11.400;2023-04-19T04:58:46;7.57;;;6.60;;
14306;SDS011;7237;49.500;11.400;2023-04-19T05:01:13;7.73;;;6.80;;
14306;SDS011;7237;49.500;11.400;2023-04-19T05:03:43;7.63;;;6.90;;
14306;SDS011;7237;49.500;11.400;2023-04-19T05:06:11;10.17;;;8.43;;
14306;SDS011;7237;49.500;11.400;2023-04-19T05:08:38;8.50;;;7.37;;
14306;SDS011;7237;49.500;11.400;2023-04-19T05:11:05;7.90;;;6.60;;
14306;SDS011;7237;49.500;11.400;2023-04-19T05:13:33;8.20;;;7.23;;
14306;SDS011;7237;49.500;11.400;2023-04-19T05:16:00;7.73;;;6.93;;
14306;SDS011;7237;49.500;11.400;2023-04-19T05:18:27;9.10;;;7.03;;
14306;SDS011;7237;49.500;11.400;2023-04-19T05:20:55;10.77;;;8.23;;
14306;SDS011;7237;49.500;11.400;2023-04-19T05:23:23;8.40;;;7.50;;
14306;SDS011;7237;49.500;11.400;2023-04-19T05:25:50;8.87;;;7.67;;
14306;SDS011;7237;49.500;11.400;2023-04-19T05:28:17;8.10;;;7.30;;
14306;SDS011;7237;49.500;11.400;2023-04-19T05:30:44;9.20;;;7.90;;
14306;SDS011;7237;49.500;11.400;2023-04-19T05:33:12;8.23;;;7.43;;
14306;SDS011;7237;49.500;11.400;2023-04-19T05:35:39;8.93;;;7.83;;
14306;SDS011;7237;49.500;11.400;2023-04-19T05:38:06;8.93;;;7.67;;
14306;SDS011;7237;49.500;11.400;2023-04-19T05:40:34;8.63;;;7.60;;
14306;SDS011;7237;49.500;11.400;2023-04-19T05:43:01;8.83;;;7.93;;
14306;SDS011;7237;49.500;11.400;2023-04-19T05:45:28;9.63;;;8.20;;
14306;SDS011;7237;49.500;11.400;2023-04-19T05:47:55;9.73;;;8.30;;
14306;SDS011;7237;49.500;11.400;2023-04-19T05:50:22;8.77;;;7.87;;
14306;SDS011;7237;49.500;11.400;2023-04-19T05:52:49;8.27;;;6.90;;
14306;SDS011;7237;49.500;11.400;2023-04-19T05:55:16;8.57;;;7.70;;
14306;SDS011;7237;49.500;11.400;2023-04-19T05:57:44;8.57;;;7.20;;
14306;SDS011;7237;49.500;11.400;2023-04-19T06:00:12;8.50;;;7.57;;
14306;SDS011;7237;49.500;11.400;2023-04-19T06:02:40;8.20;;;7.40;;
14306;SDS011;7237;49.500;11.400;2023-04-19T06:05:08;10.10;;;7.90;;
14306;SDS011;7237;49.500;11.400;2023-04-19T06:07:35;8.47;;;7.43;;
14306;SDS011;7237;49.500;11.400;2023-04-19T06:10:02;7.50;;;6.70;;
14306;SDS011;7237;49.500;11.400;2023-04-19T06:12:30;7.33;;;6.63;;
14306;SDS011;7237;49.500;11.400;2023-04-19T06:14:59;9.13;;;7.53;;
14306;SDS011;7237;49.500;11.400;2023-04-19T06:17:26;8.50;;;7.70;;
14306;SDS011;7237;49.500;11.400;2023-04-19T06:19:53;7.87;;;6.97;;
14306;SDS011;7237;49.500;11.400;2023-04-19T06:22:20;8.33;;;7.33;;
14306;SDS011;7237;49.500;11.400;2023-04-19T06:24:47;8.43;;;7.53;;
14306;SDS011;7237;49.500;11.400;2023-04-19T06:27:15;8.17;;;7.17;;
14306;SDS011;7237;49.500;11.400;2023-04-19T06:29:42;8.23;;;7.40;;
14306;SDS011;7237;49.500;11.400;2023-04-19T06:32:10;7.33;;;6.43;;
14306;SDS011;7237;49.500;11.400;2023-04-19T06:34:37;8.20;;;6.87;;
14306;SDS011;7237;49.500;11.400;2023-04-19T06:37:04;9.57;;;6.83;;
14306;SDS011;7237;49.500;11.400;2023-04-19T06:39:31;8.20;;;7.40;;
14306;SDS011;7237;49.500;11.400;2023-04-19T06:41:59;8.37;;;7.50;;
14306;SDS011;7237;49.500;11.400;2023-04-19T06:44:26;8.27;;;7.47;;
14306;SDS011;7237;49.500;11.400;2023-04-19T06:46:53;8.80;;;7.43;;
14306;SDS011;7237;49.500;11.400;2023-04-19T06:49:21;8.53;;;7.63;;
14306;SDS011;7237;49.500;11.400;2023-04-19T06:51:48;8.53;;;7.13;;
14306;SDS011;7237;49.500;11.400;2023-04-19T06:54:15;8.87;;;8.00;;
14306;SDS011;7237;49.500;11.400;2023-04-19T06:56:43;8.83;;;7.57;;
14306;SDS011;7237;49.500;11.400;2023-04-19T06:59:11;8.97;;;7.70;;
14306;SDS011;7237;49.500;11.400;2023-04-19T07:01:38;9.93;;;7.73;;
14306;SDS011;7237;49.500;11.400;2023-04-19T07:04:05;11.13;;;7.13;;
14306;SDS011;7237;49.500;11.400;2023-04-19T07:06:34;10.23;;;7.90;;
14306;SDS011;7237;49.500;11.400;2023-04-19T07:09:01;9.00;;;8.00;;
14306;SDS011;7237;49.500;11.400;2023-04-19T07:11:29;9.00;;;7.70;;
14306;SDS011;7237;49.500;11.400;2023-04-19T07:13:56;9.63;;;8.37;;
14306;SDS011;7237;49.500;11.400;2023-04-19T07:16:23;9.43;;;8.03;;
14306;SDS011;7237;49.500;11.400;2023-04-19T07:18:50;10.03;;;8.70;;
14306;SDS011;7237;49.500;11.400;2023-04-19T07:21:17;8.37;;;7.57;;
14306;SDS011;7237;49.500;11.400;2023-04-19T07:23:46;8.83;;;7.93;;
14306;SDS011;7237;49.500;11.400;2023-04-19T07:26:13;8.67;;;7.80;;
14306;SDS011;7237;49.500;11.400;2023-04-19T07:28:40;8.43;;;7.63;;
14306;SDS011;7237;49.500;11.400;2023-04-19T07:31:12;10.27;;;9.00;;
14306;SDS011;7237;49.500;11.400;2023-04-19T07:33:40;8.67;;;7.77;;
14306;SDS011;7237;49.500;11.400;2023-04-19T07:36:07;10.37;;;8.20;;
14306;SDS011;7237;49.500;11.400;2023-04-19T07:38:34;8.90;;;8.00;;
14306;SDS011;7237;49.500;11.400;2023-04-19T07:41:02;10.87;;;8.00;;
14306;SDS011;7237;49.500;11.400;2023-04-19T07:43:30;9.57;;;7.87;;
14306;SDS011;7237;49.500;11.400;2023-04-19T07:45:57;9.67;;;8.50;;
14306;SDS011;7237;49.500;11.400;2023-04-19T07:48:24;9.50;;;8.50;;
14306;SDS011;7237;49.500;11.400;2023-04-19T07:50:51;9.17;;;8.10;;
14306;SDS011;7237;49.500;11.400;2023-04-19T07:53:18;10.27;;;8.73;;
14306;SDS011;7237;49.500;11.400;2023-04-19T07:55:45;9.50;;;8.50;;
14306;SDS011;7237;49.500;11.400;2023-04-19T07:58:13;9.40;;;8.47;;
14306;SDS011;7237;49.500;11.400;2023-04-19T08:00:40;10.97;;;9.80;;
14306;SDS011;7237;49.500;11.400;2023-04-19T08:03:07;12.07;;;9.77;;
14306;SDS011;7237;49.500;11.400;2023-04-19T08:05:34;12.90;;;9.83;;
14306;SDS011;7237;49.500;11.400;2023-04-19T08:08:01;12.90;;;10.37;;
14306;SDS011;7237;49.500;11.400;2023-04-19T08:10:29;8.63;;;7.40;;
14306;SDS011;7237;49.500;11.400;2023-04-19T08:12:56;12.67;;;9.43;;
14306;SDS011;7237;49.500;11.400;2023-04-19T08:15:24;12.10;;;10.80;;
14306;SDS011;7237;49.500;11.400;2023-04-19T08:17:51;12.20;;;10.90;;
14306;SDS011;7237;49.500;11.400;2023-04-19T08:20:18;13.67;;;12.10;;
14306;SDS011;7237;49.500;11.400;2023-04-19T08:22:46;13.87;;;12.23;;
14306;SDS011;7237;49.500;11.400;2023-04-19T08:25:13;13.40;;;11.47;;
14306;SDS011;7237;49.500;11.400;2023-04-19T08:27:40;10.60;;;9.47;;
14306;SDS011;7237;49.500;11.400;2023-04-19T08:30:07;11.17;;;9.83;;
14306;SDS011;7237;49.500;11.400;2023-04-19T08:32:36;10.80;;;9.70;;
14306;SDS011;7237;49.500;11.400;2023-04-19T08:35:04;11.13;;;9.97;;
14306;SDS011;7237;49.500;11.400;2023-04-19T08:37:32;11.57;;;10.07;;
14306;SDS011;7237;49.500;11.400;2023-04-19T08:39:59;12.27;;;9.77;;
14306;SDS011;7237;49.500;11.400;2023-04-19T08:42:27;10.80;;;9.70;;
14306;SDS011;7237;49.500;11.400;2023-04-19T08:44:54;12.40;;;10.07;;
14306;SDS011;7237;49.500;11.400;2023-04-19T08:47:23;13.60;;;10.50;;
14306;SDS011;7237;49.500;11.400;2023-04-19T08:49:51;11.97;;;10.40;;
14306;SDS011;7237;49.500;11.400;2023-04-19T08:52:21;14.83;;;10.10;;
14306;SDS011;7237;49.500;11.400;2023-04-19T08:54:49;12.67;;;11.30;;
14306;SDS011;7237;49.500;11.400;2023-04-19T08:57:17;13.37;;;10.97;;
14306;SDS011;7237;49.500;11.400;2023-04-19T08:59:44;15.63;;;11.67;;
14306;SDS011;7237;49.500;11.400;2023-04-19T09:02:15;14.63;;;11.53;;
14306;SDS011;7237;49.500;11.400;2023-04-19T09:04:43;14.20;;;11.53;;
14306;SDS011;7237;49.500;11.400;2023-04-19T09:07:22;12.30;;;10.77;;
14306;SDS011;7237;49.500;11.400;2023-04-19T09:10:03;13.73;;;11.60;;
14306;SDS011;7237;49.500;11.400;2023-04-19T09:12:31;12.70;;;11.33;;
14306;SDS011;7237;49.500;11.400;2023-04-19T09:14:59;14.00;;;11.83;;
14306;SDS011;7237;49.500;11.400;2023-04-19T09:17:26;15.47;;;12.13;;
14306;SDS011;7237;49.500;11.400;2023-04-19T09:19:53;14.63;;;10.93;;
14306;SDS011;7237;49.500;11.400;2023-04-19T09:22:20;13.80;;;12.30;;
14306;SDS011;7237;49.500;11.400;2023-04-19T09:24:49;13.43;;;11.70;;
14306;SDS011;7237;49.500;11.400;2023-04-19T09:27:18;13.50;;;10.87;;
14306;SDS011;7237;49.500;11.400;2023-04-19T09:29:51;13.87;;;11.07;;
14306;SDS011;7237;49.500;11.400;2023-04-19T09:32:19;11.43;;;9.63;;
14306;SDS011;7237;49.500;11.400;2023-04-19T09:34:49;12.57;;;10.97;;
14306;SDS011;7237;49.500;11.400;2023-04-19T09:37:17;12.17;;;10.87;;
14306;SDS011;7237;49.500;11.400;2023-04-19T09:39:44;12.13;;;9.70;;
14306;SDS011;7237;49.500;11.400;2023-04-19T09:42:12;9.87;;;8.87;;
14306;SDS011;7237;49.500;11.400;2023-04-19T09:44:41;9.87;;;8.83;;
14306;SDS011;7237;49.500;11.400;2023-04-19T09:50:03;9.17;;;8.23;;
14306;SDS011;7237;49.500;11.400;2023-04-19T09:52:31;8.63;;;7.70;;
14306;SDS011;7237;49.500;11.400;2023-04-19T09:54:59;7.40;;;6.67;;
14306;SDS011;7237;49.500;11.400;2023-04-19T09:57:28;7.53;;;6.67;;
14306;SDS011;7237;49.500;11.400;2023-04-19T09:59:55;6.97;;;6.27;;
14306;SDS011;7237;49.500;11.400;2023-04-19T10:02:24;6.37;;;5.43;;
14306;SDS011;7237;49.500;11.400;2023-04-19T10:04:52;6.63;;;5.30;;
14306;SDS011;7237;49.500;11.400;2023-04-19T10:07:20;5.20;;;4.17;;
14306;SDS011;7237;49.500;11.400;2023-04-19T10:09:47;4.60;;;4.20;;
14306;SDS011;7237;49.500;11.400;2023-04-19T10:12:15;5.13;;;4.50;;
14306;SDS011;7237;49.500;11.400;2023-04-19T10:14:44;5.10;;;4.17;;
14306;SDS011;7237;49.500;11.400;2023-04-19T10:17:11;4.33;;;3.93;;
14306;SDS011;7237;49.500;11.400;2023-04-19T10:19:38;5.03;;;3.80;;
14306;SDS011;7237;49.500;11.400;2023-04-19T10:22:06;5.27;;;4.03;;
14306;SDS011;7237;49.500;11.400;2023-04-19T10:24:33;4.43;;;4.03;;
14306;SDS011;7237;49.500;11.400;2023-04-19T10:27:07;4.63;;;4.23;;
14306;SDS011;7237;49.500;11.400;2023-04-19T10:29:55;5.00;;;4.50;;
14306;SDS011;7237;49.500;11.400;2023-04-19T10:32:22;5.00;;;4.50;;
14306;SDS011;7237;49.500;11.400;2023-04-19T10:34:50;4.33;;;3.93;;
14306;SDS011;7237;49.500;11.400;2023-04-19T10:37:20;4.13;;;3.73;;
14306;SDS011;7237;49.500;11.400;2023-04-19T10:39:48;5.33;;;4.63;;
14306;SDS011;7237;49.500;11.400;2023-04-19T10:42:16;4.83;;;4.33;;
14306;SDS011;7237;49.500;11.400;2023-04-19T10:50:09;4.20;;;3.67;;
14306;SDS011;7237;49.500;11.400;2023-04-19T10:52:36;4.47;;;3.77;;
14306;SDS011;7237;49.500;11.400;2023-04-19T10:55:03;3.92;;;3.63;;
14306;SDS011;7237;49.500;11.400;2023-04-19T11:00:17;3.90;;;3.50;;
14306;SDS011;7237;49.500;11.400;2023-04-19T11:02:44;3.63;;;3.33;;
14306;SDS011;7237;49.500;11.400;2023-04-19T11:05:13;4.30;;;3.67;;
14306;SDS011;7237;49.500;11.400;2023-04-19T11:07:40;3.53;;;3.20;;
14306;SDS011;7237;49.500;11.400;2023-04-19T11:10:08;3.70;;;3.40;;
14306;SDS011;7237;49.500;11.400;2023-04-19T11:12:36;3.40;;;3.10;;
14306;SDS011;7237;49.500;11.400;2023-04-19T11:15:04;3.23;;;3.00;;
14306;SDS011;7237;49.500;11.400;2023-04-19T11:17:33;3.80;;;3.50;;
14306;SDS011;7237;49.500;11.400;2023-04-19T11:20:03;4.00;;;3.60;;
14306;SDS011;7237;49.500;11.400;2023-04-19T11:22:32;3.50;;;3.20;;
14306;SDS011;7237;49.500;11.400;2023-04-19T11:25:03;3.30;;;2.90;;
14306;SDS011;7237;49.500;11.400;2023-04-19T11:27:31;5.47;;;3.17;;
14306;SDS011;7237;49.500;11.400;2023-04-19T11:30:00;3.20;;;2.80;;
14306;SDS011;7237;49.500;11.400;2023-04-19T11:32:28;3.33;;;2.50;;
14306;SDS011;7237;49.500;11.400;2023-04-19T11:34:55;2.33;;;2.10;;
14306;SDS011;7237;49.500;11.400;2023-04-19T11:37:22;2.60;;;2.40;;
14306;SDS011;7237;49.500;11.400;2023-04-19T11:39:50;2.43;;;2.20;;
14306;SDS011;7237;49.500;11.400;2023-04-19T11:42:18;2.70;;;2.20;;
14306;SDS011;7237;49.500;11.400;2023-04-19T11:44:49;3.33;;;2.17;;
14306;SDS011;7237;49.500;11.400;2023-04-19T11:47:17;2.43;;;2.10;;
14306;SDS011;7237;49.500;11.400;2023-04-19T11:49:44;2.20;;;2.00;;
14306;SDS011;7237;49.500;11.400;2023-04-19T11:52:11;2.27;;;2.00;;
14306;SDS011;7237;49.500;11.400;2023-04-19T11:54:45;5.83;;;2.00;;
14306;SDS011;7237;49.500;11.400;2023-04-19T11:57:13;2.57;;;1.63;;
14306;SDS011;7237;49.500;11.400;2023-04-19T11:59:50;2.63;;;1.60;;
14306;SDS011;7237;49.500;11.400;2023-04-19T12:02:27;1.67;;;1.40;;
14306;SDS011;7237;49.500;11.400;2023-04-19T12:04:54;1.63;;;1.53;;
14306;SDS011;7237;49.500;11.400;2023-04-19T12:07:21;1.93;;;1.60;;
14306;SDS011;7237;49.500;11.400;2023-04-19T12:09:48;1.70;;;1.60;;
14306;SDS011;7237;49.500;11.400;2023-04-19T12:14:59;2.80;;;1.63;;
14306;SDS011;7237;49.500;11.400;2023-04-19T12:17:26;2.10;;;1.70;;
14306;SDS011;7237;49.500;11.400;2023-04-19T12:19:53;2.07;;;1.77;;
14306;SDS011;7237;49.500;11.400;2023-04-19T12:22:20;1.40;;;1.30;;
14306;SDS011;7237;49.500;11.400;2023-04-19T12:24:49;1.50;;;1.30;;
14306;SDS011;7237;49.500;11.400;2023-04-19T12:27:18;1.37;;;1.27;;
14306;SDS011;7237;49.500;11.400;2023-04-19T12:29:45;1.63;;;1.53;;
14306;SDS011;7237;49.500;11.400;2023-04-19T12:32:13;3.30;;;1.50;;
14306;SDS011;7237;49.500;11.400;2023-04-19T12:34:40;1.97;;;1.33;;
14306;SDS011;7237;49.500;11.400;2023-04-19T12:37:07;2.07;;;1.50;;
14306;SDS011;7237;49.500;11.400;2023-04-19T12:39:34;3.03;;;1.30;;
14306;SDS011;7237;49.500;11.400;2023-04-19T12:42:02;1.40;;;1.30;;
14306;SDS011;7237;49.500;11.400;2023-04-19T12:44:29;1.40;;;1.30;;
14306;SDS011;7237;49.500;11.400;2023-04-19T12:46:56;4.13;;;1.40;;
14306;SDS011;7237;49.500;11.400;2023-04-19T12:49:25;1.50;;;1.10;;
14306;SDS011;7237;49.500;11.400;2023-04-19T12:51:52;1.63;;;1.43;;
14306;SDS011;7237;49.500;11.400;2023-04-19T12:54:19;1.03;;;0.90;;
14306;SDS011;7237;49.500;11.400;2023-04-19T12:56:46;1.70;;;1.10;;
14306;SDS011;7237;49.500;11.400;2023-04-19T12:59:13;1.20;;;1.10;;
14306;SDS011;7237;49.500;11.400;2023-04-19T13:01:40;1.83;;;1.53;;
14306;SDS011;7237;49.500;11.400;2023-04-19T13:04:07;1.40;;;1.20;;
14306;SDS011;7237;49.500;11.400;2023-04-19T13:06:37;1.17;;;1.17;;
14306;SDS011;7237;49.500;11.400;2023-04-19T13:09:04;1.43;;;1.20;;
14306;SDS011;7237;49.500;11.400;2023-04-19T13:11:32;1.50;;;1.40;;
14306;SDS011;7237;49.500;11.400;2023-04-19T13:13:59;1.43;;;1.20;;
14306;SDS011;7237;49.500;11.400;2023-04-19T13:16:26;1.10;;;1.10;;
14306;SDS011;7237;49.500;11.400;2023-04-19T13:18:53;1.20;;;1.10;;
14306;SDS011;7237;49.500;11.400;2023-04-19T13:21:20;1.40;;;1.30;;
14306;SDS011;7237;49.500;11.400;2023-04-19T13:23:49;1.37;;;1.27;;
14306;SDS011;7237;49.500;11.400;2023-04-19T13:26:17;1.77;;;1.30;;
14306;SDS011;7237;49.500;11.400;2023-04-19T13:28:44;1.50;;;1.40;;
14306;SDS011;7237;49.500;11.400;2023-04-19T13:31:11;1.60;;;1.50;;
14306;SDS011;7237;49.500;11.400;2023-04-19T13:33:38;2.33;;;1.40;;
14306;SDS011;7237;49.500;11.400;2023-04-19T13:36:06;4.00;;;1.50;;
14306;SDS011;7237;49.500;11.400;2023-04-19T13:38:33;2.53;;;1.53;;
14306;SDS011;7237;49.500;11.400;2023-04-19T13:41:01;2.00;;;1.57;;
14306;SDS011;7237;49.500;11.400;2023-04-19T13:43:29;2.00;;;1.50;;
14306;SDS011;7237;49.500;11.400;2023-04-19T13:45:56;1.73;;;1.53;;
14306;SDS011;7237;49.500;11.400;2023-04-19T13:48:23;1.77;;;1.60;;
14306;SDS011;7237;49.500;11.400;2023-04-19T13:50:52;1.40;;;1.30;;
14306;SDS011;7237;49.500;11.400;2023-04-19T13:53:19;1.90;;;1.77;;
14306;SDS011;7237;49.500;11.400;2023-04-19T13:55:46;2.17;;;1.60;;
14306;SDS011;7237;49.500;11.400;2023-04-19T13:58:15;2.77;;;1.50;;
14306;SDS011;7237;49.500;11.400;2023-04-19T14:00:42;2.10;;;1.50;;
14306;SDS011;7237;49.500;11.400;2023-04-19T14:03:09;1.97;;;1.63;;
14306;SDS011;7237;49.500;11.400;2023-04-19T14:05:36;2.30;;;1.87;;
14306;SDS011;7237;49.500;11.400;2023-04-19T14:08:03;2.93;;;1.53;;
14306;SDS011;7237;49.500;11.400;2023-04-19T14:10:30;2.40;;;2.00;;
14306;SDS011;7237;49.500;11.400;2023-04-19T14:12:57;1.87;;;1.77;;
14306;SDS011;7237;49.500;11.400;2023-04-19T14:15:26;2.28;;;1.75;;
14306;SDS011;7237;49.500;11.400;2023-04-19T14:17:53;1.83;;;1.60;;
14306;SDS011;7237;49.500;11.400;2023-04-19T14:20:20;3.63;;;1.93;;
14306;SDS011;7237;49.500;11.400;2023-04-19T14:22:47;1.73;;;1.63;;
14306;SDS011;7237;49.500;11.400;2023-04-19T14:25:14;2.13;;;1.77;;
14306;SDS011;7237;49.500;11.400;2023-04-19T14:27:42;2.27;;;1.80;;
14306;SDS011;7237;49.500;11.400;2023-04-19T14:30:09;2.63;;;1.70;;
14306;SDS011;7237;49.500;11.400;2023-04-19T14:32:37;1.60;;;1.50;;
14306;SDS011;7237;49.500;11.400;2023-04-19T14:35:05;3.40;;;1.80;;
14306;SDS011;7237;49.500;11.400;2023-04-19T14:37:33;1.90;;;1.70;;
14306;SDS011;7237;49.500;11.400;2023-04-19T14:40:00;1.47;;;1.37;;
14306;SDS011;7237;49.500;11.400;2023-04-19T14:42:27;1.90;;;1.43;;
14306;SDS011;7237;49.500;11.400;2023-04-19T14:44:54;2.40;;;1.43;;
14306;SDS011;7237;49.500;11.400;2023-04-19T14:47:21;2.00;;;1.60;;
14306;SDS011;7237;49.500;11.400;2023-04-19T14:49:49;2.80;;;1.43;;
14306;SDS011;7237;49.500;11.400;2023-04-19T14:52:16;3.43;;;1.70;;
14306;SDS011;7237;49.500;11.400;2023-04-19T14:54:43;3.07;;;1.70;;
14306;SDS011;7237;49.500;11.400;2023-04-19T14:57:11;1.33;;;1.23;;
14306;SDS011;7237;49.500;11.400;2023-04-19T14:59:38;1.80;;;1.70;;
14306;SDS011;7237;49.500;11.400;2023-04-19T15:02:05;1.73;;;1.63;;
14306;SDS011;7237;49.500;11.400;2023-04-19T15:04:34;4.03;;;1.70;;